Time;durP1;ratioP1;P1;durP2;ratioP2;P2;SDS_P1;SDS_P2;PMS_P1;PMS_P2;Temp;Humidity;BMP_temperature;BMP_pressure;BME280_temperature;BME280_humidity;BME280_pressure;Samples;Min_cycle;Max_cycle;Signal;HPM_P1;HPM_P2
2022/01/08 00:00:12;;;;;;;12.75;7.40;;;4.60;98.30;;;;;;4971901;28;20041;-64
2022/01/08 00:02:40;;;;;;;10.40;7.95;;;4.70;98.30;;;;;;4973661;28;20081;-65
2022/01/08 00:05:06;;;;;;;12.43;8.13;;;4.70;98.30;;;;;;4973259;28;20117;-65
2022/01/08 00:07:32;;;;;;;12.40;7.95;;;4.70;98.30;;;;;;4973264;28;20125;-65
2022/01/08 00:09:57;;;;;;;10.10;6.95;;;4.70;98.30;;;;;;4974097;28;20084;-65
2022/01/08 00:12:23;;;;;;;9.85;7.43;;;4.80;98.40;;;;;;4968223;28;20084;-64
2022/01/08 00:14:49;;;;;;;11.95;7.75;;;4.80;98.30;;;;;;4973998;28;20054;-64
2022/01/08 00:17:15;;;;;;;11.80;7.72;;;4.90;98.30;;;;;;4973408;28;20061;-65
2022/01/08 00:19:40;;;;;;;11.40;7.80;;;4.80;98.30;;;;;;4973602;28;20363;-64
2022/01/08 00:22:06;;;;;;;12.43;7.82;;;4.90;98.30;;;;;;4973301;28;20022;-64
2022/01/08 00:24:31;;;;;;;10.38;7.47;;;4.90;98.30;;;;;;4972766;28;20034;-65
2022/01/08 00:26:57;;;;;;;11.73;7.85;;;4.90;98.30;;;;;;4965205;28;20376;-64
2022/01/08 00:29:22;;;;;;;11.73;7.55;;;4.80;98.20;;;;;;4971646;28;20030;-66
2022/01/08 00:31:48;;;;;;;12.00;8.70;;;4.80;98.20;;;;;;4973355;28;20039;-65
2022/01/08 00:34:13;;;;;;;14.15;8.75;;;4.80;98.30;;;;;;4974419;28;20493;-65
2022/01/08 00:36:39;;;;;;;12.02;8.55;;;4.80;98.30;;;;;;4972722;28;20074;-66
2022/01/08 00:39:04;;;;;;;13.02;8.27;;;4.70;98.30;;;;;;4974236;28;20514;-65
2022/01/08 00:41:30;;;;;;;11.15;8.10;;;4.70;98.30;;;;;;4972548;28;20049;-65
2022/01/08 00:43:56;;;;;;;11.43;7.53;;;4.70;98.40;;;;;;4973807;28;20470;-65
2022/01/08 00:46:22;;;;;;;11.52;8.43;;;4.70;98.40;;;;;;4973152;28;20031;-65
2022/01/08 00:48:47;;;;;;;11.45;8.27;;;4.70;98.40;;;;;;4974057;28;20194;-65
2022/01/08 00:51:13;;;;;;;12.48;9.32;;;4.70;98.40;;;;;;4963779;28;20035;-65
2022/01/08 00:53:38;;;;;;;11.52;7.68;;;4.60;98.40;;;;;;4972919;28;20486;-65
2022/01/08 00:56:04;;;;;;;12.52;8.65;;;4.70;98.50;;;;;;4971173;28;20035;-65
2022/01/08 00:58:30;;;;;;;10.98;8.02;;;4.70;98.50;;;;;;4956445;28;20034;-65
2022/01/08 01:00:56;;;;;;;9.93;7.22;;;4.70;98.50;;;;;;4973152;28;20042;-65
2022/01/08 01:03:23;;;;;;;11.88;8.02;;;4.70;98.50;;;;;;4973485;28;20054;-65
2022/01/08 01:05:49;;;;;;;10.80;7.38;;;4.70;98.60;;;;;;4973250;28;20034;-65
2022/01/08 01:08:14;;;;;;;10.98;8.23;;;4.60;98.60;;;;;;4961475;28;20031;-66
2022/01/08 01:10:40;;;;;;;11.68;8.45;;;4.70;98.60;;;;;;4970486;28;20034;-66
2022/01/08 01:13:05;;;;;;;11.38;7.75;;;4.60;98.60;;;;;;4972509;28;20026;-65
2022/01/08 01:15:31;;;;;;;11.10;7.70;;;4.70;98.70;;;;;;4987776;28;20034;-65
2022/01/08 01:17:57;;;;;;;11.20;7.97;;;4.70;98.70;;;;;;4951901;28;20078;-65
2022/01/08 01:20:22;;;;;;;9.60;7.22;;;4.80;98.70;;;;;;4962673;28;20471;-65
2022/01/08 01:23:11;;;;;;;11.75;8.40;;;4.80;98.70;;;;;;4970715;28;20058;-65
2022/01/08 01:25:46;;;;;;;10.68;8.30;;;4.80;98.70;;;;;;4953932;28;20028;-64
2022/01/08 01:28:25;;;;;;;13.35;7.95;;;4.80;98.60;;;;;;4972357;28;20114;-65
2022/01/08 01:47:16;;;;;;;14.20;8.30;;;4.90;98.70;;;;;;4971982;28;20481;-64
2022/01/08 01:49:44;;;;;;;11.40;7.47;;;4.90;98.70;;;;;;4971171;28;20426;-65
2022/01/08 01:52:13;;;;;;;10.48;7.75;;;5.00;98.70;;;;;;4970240;28;20033;-65
2022/01/08 01:54:38;;;;;;;10.50;7.68;;;4.90;98.70;;;;;;4968053;28;20043;-64
2022/01/08 01:57:06;;;;;;;12.77;7.78;;;4.90;98.70;;;;;;4959150;28;20062;-65
2022/01/08 01:59:33;;;;;;;10.88;7.32;;;4.90;98.60;;;;;;4971620;28;20530;-65
2022/01/08 02:01:59;;;;;;;11.30;8.10;;;4.90;98.60;;;;;;4971106;28;20043;-65
2022/01/08 02:04:26;;;;;;;12.35;8.48;;;4.90;98.60;;;;;;4971377;28;20081;-65
2022/01/08 02:06:51;;;;;;;12.13;8.23;;;4.90;98.60;;;;;;4963948;28;20038;-65
2022/01/08 02:09:17;;;;;;;11.32;8.32;;;4.90;98.70;;;;;;4962492;28;20019;-65
2022/01/08 02:12:11;;;;;;;12.43;8.23;;;4.90;98.70;;;;;;4963932;28;20114;-65
2022/01/08 02:14:39;;;;;;;11.82;8.20;;;4.80;98.70;;;;;;4956632;28;20557;-65
2022/01/08 02:17:08;;;;;;;13.98;8.90;;;4.80;98.70;;;;;;4970116;28;20066;-65
2022/01/08 02:19:35;;;;;;;11.50;8.27;;;4.80;98.70;;;;;;4971984;28;20057;-65
2022/01/08 02:22:04;;;;;;;12.65;8.90;;;4.80;98.80;;;;;;4969560;28;20035;-65
2022/01/08 02:24:30;;;;;;;13.90;8.52;;;4.80;98.80;;;;;;4971735;28;20027;-65
2022/01/08 02:26:55;;;;;;;12.15;8.30;;;4.80;98.80;;;;;;4972485;28;20536;-65
2022/01/08 02:29:25;;;;;;;12.02;8.27;;;4.80;98.80;;;;;;4971661;28;20035;-65
2022/01/08 02:31:54;;;;;;;12.63;8.55;;;4.80;98.80;;;;;;4970695;28;20474;-65
2022/01/08 02:34:20;;;;;;;11.38;8.80;;;4.80;98.80;;;;;;4971649;28;20082;-65
2022/01/08 02:36:46;;;;;;;11.25;7.40;;;4.80;98.80;;;;;;4970851;28;20045;-65
2022/01/08 02:39:12;;;;;;;11.60;8.85;;;4.80;98.80;;;;;;4954959;28;20027;-65
2022/01/08 02:41:39;;;;;;;11.38;8.27;;;4.80;98.80;;;;;;4961315;28;20034;-65
2022/01/08 02:44:09;;;;;;;12.52;8.13;;;4.90;98.90;;;;;;4975462;28;20039;-65
2022/01/08 02:46:34;;;;;;;13.35;8.48;;;4.90;98.80;;;;;;4975280;28;20034;-65
2022/01/08 02:49:00;;;;;;;11.00;7.97;;;4.90;98.80;;;;;;4971409;28;20566;-65
2022/01/08 02:51:25;;;;;;;11.02;8.10;;;4.90;98.90;;;;;;4974724;28;20110;-65
2022/01/08 02:53:51;;;;;;;14.30;8.50;;;5.00;98.90;;;;;;4973377;28;20031;-65
2022/01/08 02:56:17;;;;;;;11.35;8.02;;;5.00;98.90;;;;;;4974919;28;20030;-65
2022/01/08 02:58:43;;;;;;;13.48;8.63;;;5.10;98.90;;;;;;4973745;28;20113;-65
2022/01/08 03:01:08;;;;;;;11.07;7.63;;;5.10;98.80;;;;;;4975743;28;20054;-65
2022/01/08 03:03:34;;;;;;;12.23;8.23;;;5.10;98.80;;;;;;4973061;28;20116;-64
2022/01/08 03:06:00;;;;;;;12.57;8.68;;;5.20;98.80;;;;;;4975472;28;20097;-64
2022/01/08 03:08:26;;;;;;;10.95;7.47;;;5.20;98.80;;;;;;4965136;28;20023;-64
2022/01/08 03:10:52;;;;;;;11.88;8.02;;;5.20;98.70;;;;;;4969522;28;20127;-64
2022/01/08 03:13:18;;;;;;;10.10;7.90;;;5.30;98.70;;;;;;4974539;28;20053;-64
2022/01/08 03:15:43;;;;;;;11.32;7.60;;;5.30;98.70;;;;;;4973961;28;20478;-64
2022/01/08 03:18:09;;;;;;;11.68;8.05;;;5.30;98.70;;;;;;4974200;28;20609;-64
2022/01/08 03:20:43;;;;;;;12.57;7.68;;;5.30;98.60;;;;;;4974739;28;20042;-64
2022/01/08 03:23:14;;;;;;;10.63;7.88;;;5.30;98.60;;;;;;4974206;28;20039;-65
2022/01/08 03:25:39;;;;;;;11.25;7.47;;;5.40;98.60;;;;;;4975504;28;20039;-65
2022/01/08 03:28:05;;;;;;;11.40;7.93;;;5.40;98.60;;;;;;4973609;28;20387;-64
2022/01/08 03:30:30;;;;;;;11.20;8.05;;;5.40;98.60;;;;;;4975091;28;20050;-65
2022/01/08 03:32:56;;;;;;;9.82;7.45;;;5.30;98.50;;;;;;4974132;28;20474;-65
2022/01/08 03:35:21;;;;;;;11.32;7.90;;;5.40;98.60;;;;;;4974555;28;20074;-65
2022/01/08 03:37:47;;;;;;;14.27;8.77;;;5.40;98.50;;;;;;4972111;28;20622;-65
2022/01/08 03:40:14;;;;;;;11.18;8.40;;;5.40;98.50;;;;;;4971280;28;20043;-65
2022/01/08 03:42:39;;;;;;;11.45;8.30;;;5.40;98.60;;;;;;4973986;28;20081;-65
2022/01/08 03:45:05;;;;;;;10.50;7.72;;;5.30;98.50;;;;;;4974698;28;20026;-65
2022/01/08 03:47:53;;;;;;;12.13;8.80;;;5.30;98.50;;;;;;4972605;28;20581;-65
2022/01/08 03:50:17;;;;;;;12.10;7.82;;;5.40;98.50;;;;;;4971341;28;20070;-65
2022/01/08 03:52:45;;;;;;;11.32;8.00;;;5.30;98.50;;;;;;4973254;28;20019;-65
2022/01/08 03:55:11;;;;;;;10.88;7.55;;;5.40;98.50;;;;;;4974431;28;20042;-66
2022/01/08 03:57:37;;;;;;;11.93;8.07;;;5.40;98.40;;;;;;4973452;28;20031;-65
2022/01/08 04:00:04;;;;;;;11.30;7.72;;;5.40;98.40;;;;;;4973604;28;20041;-65
2022/01/08 04:02:29;;;;;;;12.05;8.25;;;5.40;98.30;;;;;;4974035;28;20041;-65
2022/01/08 04:04:55;;;;;;;11.43;7.60;;;5.40;98.30;;;;;;4974330;28;20385;-65
2022/01/08 04:07:20;;;;;;;11.77;7.85;;;5.40;98.30;;;;;;4972239;28;20026;-65
2022/01/08 04:09:46;;;;;;;11.25;8.27;;;5.40;98.20;;;;;;4973632;28;20446;-64
2022/01/08 04:12:16;;;;;;;11.65;8.00;;;5.40;98.20;;;;;;4972011;28;20033;-64
2022/01/08 04:15:02;;;;;;;11.38;7.97;;;5.30;98.30;;;;;;4973580;28;20041;-65
2022/01/08 04:17:27;;;;;;;11.02;7.15;;;5.40;98.10;;;;;;4972678;28;20023;-65
2022/01/08 04:19:52;;;;;;;11.18;8.07;;;5.30;98.10;;;;;;4973636;28;20033;-65
2022/01/08 04:22:18;;;;;;;11.73;8.70;;;5.30;98.10;;;;;;4973470;28;20537;-65
2022/01/08 04:24:44;;;;;;;11.27;8.25;;;5.30;98.10;;;;;;4973540;28;20482;-65
2022/01/08 04:27:09;;;;;;;12.32;8.25;;;5.30;98.20;;;;;;4973486;28;20031;-65
2022/01/08 04:29:35;;;;;;;11.98;7.75;;;5.30;98.20;;;;;;4973126;28;20073;-65
2022/01/08 04:32:00;;;;;;;11.48;7.85;;;5.20;98.20;;;;;;4972639;28;20175;-64
2022/01/08 04:34:27;;;;;;;11.13;7.63;;;5.30;98.30;;;;;;4963433;28;20093;-65
2022/01/08 04:36:53;;;;;;;12.38;8.32;;;5.30;98.20;;;;;;4973956;28;20034;-65
2022/01/08 04:39:18;;;;;;;11.43;8.23;;;5.20;98.20;;;;;;4970914;28;20569;-65
2022/01/08 04:41:44;;;;;;;10.80;7.70;;;5.30;98.20;;;;;;4973557;28;20042;-65
2022/01/08 04:44:10;;;;;;;11.88;8.60;;;5.30;98.20;;;;;;4973257;28;20446;-65
2022/01/08 04:46:38;;;;;;;11.85;8.20;;;5.30;98.20;;;;;;4973659;28;20023;-64
2022/01/08 04:49:04;;;;;;;11.75;7.97;;;5.30;98.20;;;;;;4973017;28;20037;-64
2022/01/08 04:51:29;;;;;;;12.40;8.43;;;5.30;98.20;;;;;;4973415;28;20126;-65
2022/01/08 04:53:55;;;;;;;11.98;8.70;;;5.30;98.20;;;;;;4973127;28;20034;-65
2022/01/08 04:56:20;;;;;;;10.20;7.85;;;5.30;98.20;;;;;;4973819;28;20553;-65
2022/01/08 04:58:46;;;;;;;13.32;8.68;;;5.30;98.20;;;;;;4971540;28;20039;-64
2022/01/08 05:01:16;;;;;;;11.07;8.35;;;5.30;98.20;;;;;;4973470;28;20380;-64
2022/01/08 05:03:41;;;;;;;13.20;8.38;;;5.30;98.20;;;;;;4970216;28;20030;-64
2022/01/08 05:06:07;;;;;;;11.10;8.18;;;5.40;98.20;;;;;;4972456;28;20441;-64
2022/01/08 05:08:32;;;;;;;10.95;8.40;;;5.40;98.20;;;;;;4961462;28;20035;-65
2022/01/08 05:10:58;;;;;;;12.32;8.27;;;5.40;98.20;;;;;;4956455;28;20038;-65
2022/01/08 05:13:23;;;;;;;11.38;8.38;;;5.40;98.20;;;;;;4969530;28;20034;-65
2022/01/08 05:15:49;;;;;;;12.00;7.90;;;5.40;98.20;;;;;;4971425;28;20038;-65
2022/01/08 05:18:14;;;;;;;11.30;7.88;;;5.40;98.10;;;;;;4970342;28;20027;-65
2022/01/08 05:20:44;;;;;;;11.75;8.45;;;5.40;98.10;;;;;;4970685;28;20042;-65
2022/01/08 05:23:10;;;;;;;10.60;7.85;;;5.50;98.10;;;;;;4972530;28;20035;-65
2022/01/08 05:25:36;;;;;;;13.48;9.52;;;5.40;98.10;;;;;;4973097;28;20375;-65
2022/01/08 05:28:02;;;;;;;11.98;8.35;;;5.40;98.10;;;;;;4972227;28;20027;-65
2022/01/08 05:30:28;;;;;;;11.45;8.43;;;5.40;98.10;;;;;;4973143;28;20050;-65
2022/01/08 05:32:55;;;;;;;12.73;8.90;;;5.40;98.00;;;;;;4966073;28;20110;-65
2022/01/08 05:35:21;;;;;;;12.38;8.30;;;5.40;98.00;;;;;;4970812;28;20490;-66
2022/01/08 05:37:47;;;;;;;11.82;8.98;;;5.40;98.10;;;;;;4969182;28;20049;-65
2022/01/08 05:40:12;;;;;;;12.88;8.90;;;5.40;98.00;;;;;;4972180;28;20047;-65
2022/01/08 05:42:39;;;;;;;13.40;8.75;;;5.40;98.10;;;;;;4966931;28;20062;-66
2022/01/08 05:45:05;;;;;;;12.90;8.85;;;5.40;98.00;;;;;;4964455;28;20039;-66
2022/01/08 05:47:32;;;;;;;10.95;7.97;;;5.30;98.00;;;;;;4971465;28;20033;-65
2022/01/08 05:49:58;;;;;;;11.88;8.60;;;5.30;98.00;;;;;;4972703;28;20071;-65
2022/01/08 05:52:24;;;;;;;11.93;8.55;;;5.30;98.00;;;;;;4970014;28;20034;-65
2022/01/08 05:54:50;;;;;;;11.35;8.30;;;5.30;98.00;;;;;;4969374;28;20022;-65
2022/01/08 05:57:15;;;;;;;12.32;9.10;;;5.40;98.00;;;;;;4972063;28;20565;-65
2022/01/08 05:59:41;;;;;;;13.27;8.65;;;5.30;98.00;;;;;;4972561;28;20077;-65
2022/01/08 06:02:09;;;;;;;13.43;8.90;;;5.30;97.90;;;;;;4971252;28;20050;-65
2022/01/08 06:04:34;;;;;;;13.23;8.73;;;5.30;97.90;;;;;;4970227;28;20463;-65
2022/01/08 06:07:00;;;;;;;12.15;8.50;;;5.20;97.90;;;;;;4971714;28;20031;-65
2022/01/08 06:09:25;;;;;;;12.50;8.20;;;5.20;97.90;;;;;;4971757;28;20521;-65
2022/01/08 06:11:51;;;;;;;14.10;9.23;;;5.20;97.90;;;;;;4971762;28;20026;-65
2022/01/08 06:14:16;;;;;;;11.65;8.75;;;5.20;97.90;;;;;;4954334;28;20031;-65
2022/01/08 06:16:42;;;;;;;13.80;9.38;;;5.10;97.90;;;;;;4981132;28;20030;-65
2022/01/08 06:19:10;;;;;;;12.30;8.20;;;5.10;98.10;;;;;;4968344;28;20041;-65
2022/01/08 06:21:36;;;;;;;13.27;8.43;;;5.10;98.00;;;;;;4981277;28;20034;-66
2022/01/08 06:24:03;;;;;;;13.40;9.35;;;5.10;98.00;;;;;;4975204;28;20110;-64
2022/01/08 06:26:29;;;;;;;15.85;9.85;;;5.10;98.00;;;;;;4976167;28;20498;-65
2022/01/08 06:28:54;;;;;;;15.15;9.45;;;5.00;98.00;;;;;;4975594;28;20061;-65
2022/01/08 06:31:22;;;;;;;14.50;9.60;;;5.00;98.10;;;;;;4975916;28;20474;-63
2022/01/08 06:33:48;;;;;;;12.85;8.93;;;5.00;98.10;;;;;;4975774;28;20030;-65
2022/01/08 06:36:17;;;;;;;11.55;8.52;;;5.00;98.20;;;;;;4975970;28;20030;-65
2022/01/08 06:38:43;;;;;;;13.43;9.30;;;5.00;98.20;;;;;;4975357;28;20113;-66
2022/01/08 06:41:08;;;;;;;14.52;9.35;;;5.00;98.30;;;;;;4975762;28;20170;-66
2022/01/08 06:43:34;;;;;;;12.13;8.30;;;5.00;98.30;;;;;;4973994;28;20462;-65
2022/01/08 06:45:59;;;;;;;12.43;8.93;;;5.00;98.40;;;;;;4975874;28;20239;-65
2022/01/08 06:48:24;;;;;;;12.23;9.20;;;5.00;98.40;;;;;;4975246;28;20091;-65
2022/01/08 06:50:50;;;;;;;12.85;9.05;;;5.00;98.40;;;;;;4975963;28;20027;-65
2022/01/08 06:53:15;;;;;;;12.38;8.40;;;5.10;98.40;;;;;;4975227;28;20501;-65
2022/01/08 06:55:41;;;;;;;12.88;8.18;;;5.10;98.40;;;;;;4975884;28;20027;-65
2022/01/08 06:58:07;;;;;;;13.15;8.77;;;5.20;98.40;;;;;;4974866;28;20031;-65
2022/01/08 07:00:32;;;;;;;12.98;8.95;;;5.10;98.30;;;;;;4975157;28;20051;-65
2022/01/08 07:02:59;;;;;;;14.63;10.63;;;5.20;98.30;;;;;;4974548;28;20470;-65
2022/01/08 07:05:25;;;;;;;13.90;8.52;;;5.20;98.30;;;;;;4958259;28;20067;-65
2022/01/08 07:07:50;;;;;;;13.50;8.90;;;5.20;98.50;;;;;;4971582;28;20092;-65
2022/01/08 07:10:16;;;;;;;14.88;8.57;;;5.30;98.30;;;;;;4966492;28;20028;-65
2022/01/08 07:12:42;;;;;;;13.05;9.30;;;5.30;98.30;;;;;;4961651;28;20125;-65
2022/01/08 07:15:08;;;;;;;14.95;8.23;;;5.30;98.30;;;;;;4975142;28;20023;-65
2022/01/08 07:17:33;;;;;;;13.85;8.60;;;5.30;98.30;;;;;;4963877;28;20039;-65
2022/01/08 07:19:59;;;;;;;11.88;8.65;;;5.30;98.30;;;;;;4967643;28;20046;-65
2022/01/08 07:22:24;;;;;;;11.50;8.48;;;5.30;98.30;;;;;;4986211;28;20026;-65
2022/01/08 07:24:50;;;;;;;13.95;9.23;;;5.30;98.30;;;;;;4966204;28;20073;-66
2022/01/08 07:27:15;;;;;;;13.55;8.75;;;5.30;98.30;;;;;;4974227;28;20129;-65
2022/01/08 07:29:41;;;;;;;12.85;8.85;;;5.40;98.30;;;;;;4973591;28;20352;-65
2022/01/08 07:32:06;;;;;;;14.93;9.43;;;5.30;98.30;;;;;;4973455;28;20027;-64
2022/01/08 07:34:32;;;;;;;15.68;9.05;;;5.40;98.30;;;;;;4971720;28;20394;-67
2022/01/08 07:36:57;;;;;;;14.15;9.13;;;5.40;98.20;;;;;;4974439;28;20414;-67
2022/01/08 07:39:23;;;;;;;13.55;9.25;;;5.40;98.20;;;;;;4959207;28;20110;-67
2022/01/08 07:41:48;;;;;;;13.55;8.82;;;5.40;98.10;;;;;;4961472;28;20285;-66
2022/01/08 07:44:14;;;;;;;13.02;8.80;;;5.40;98.10;;;;;;4957353;28;20035;-66
2022/01/08 07:46:39;;;;;;;12.52;8.80;;;5.30;98.10;;;;;;4961267;28;20034;-68
2022/01/08 07:49:05;;;;;;;13.75;9.25;;;5.30;98.10;;;;;;4973765;28;20486;-67
2022/01/08 07:51:30;;;;;;;14.15;9.10;;;5.30;98.10;;;;;;4973289;28;20019;-68
2022/01/08 07:53:56;;;;;;;14.27;9.25;;;5.30;98.10;;;;;;4972799;28;20038;-68
2022/01/08 07:56:22;;;;;;;15.18;9.30;;;5.30;98.10;;;;;;4974301;28;20410;-68
2022/01/08 07:58:47;;;;;;;15.15;9.25;;;5.30;98.10;;;;;;4974856;28;20031;-68
2022/01/08 08:01:13;;;;;;;14.98;9.65;;;5.30;98.10;;;;;;4960723;28;20046;-68
2022/01/08 08:03:38;;;;;;;16.00;10.18;;;5.30;98.10;;;;;;4972077;28;20030;-67
2022/01/08 08:06:04;;;;;;;12.95;8.90;;;5.30;98.10;;;;;;4968026;28;20561;-68
2022/01/08 08:08:29;;;;;;;13.90;9.70;;;5.30;98.10;;;;;;4966979;28;20031;-68
2022/01/08 08:10:55;;;;;;;14.35;9.40;;;5.30;98.10;;;;;;4973412;28;20031;-69
2022/01/08 08:13:23;;;;;;;13.20;9.23;;;5.30;98.10;;;;;;4973125;28;20030;-68
2022/01/08 08:15:49;;;;;;;16.30;9.85;;;5.30;98.10;;;;;;4976825;28;20041;-68
2022/01/08 08:18:14;;;;;;;14.07;9.20;;;5.20;98.10;;;;;;4968409;28;20031;-68
2022/01/08 08:20:41;;;;;;;18.65;9.88;;;5.20;98.10;;;;;;4969752;28;20046;-69
2022/01/08 08:23:06;;;;;;;15.40;9.50;;;5.20;98.10;;;;;;4971803;28;20031;-68
2022/01/08 08:25:32;;;;;;;12.40;9.20;;;5.30;98.20;;;;;;4972310;28;20037;-68
2022/01/08 08:27:58;;;;;;;14.25;9.70;;;5.20;98.20;;;;;;4972395;28;20053;-68
2022/01/08 08:30:26;;;;;;;14.98;9.73;;;5.20;98.20;;;;;;4963664;28;20829;-67
2022/01/08 08:32:52;;;;;;;16.98;10.75;;;5.30;98.20;;;;;;4963956;28;20034;-68
2022/01/08 08:35:18;;;;;;;14.15;9.52;;;5.30;98.10;;;;;;4973767;28;20078;-67
2022/01/08 08:37:43;;;;;;;13.20;9.40;;;5.30;98.10;;;;;;4971525;28;20034;-67
2022/01/08 08:40:11;;;;;;;14.02;9.07;;;5.30;98.10;;;;;;4968825;28;20030;-69
2022/01/08 08:42:37;;;;;;;14.25;9.80;;;5.30;98.20;;;;;;4971510;28;20035;-70
2022/01/08 08:45:04;;;;;;;15.93;10.05;;;5.30;98.20;;;;;;4959994;28;20135;-68
2022/01/08 08:47:31;;;;;;;15.23;9.52;;;5.30;98.20;;;;;;4969257;28;20035;-69
2022/01/08 08:49:57;;;;;;;14.85;9.93;;;5.30;98.20;;;;;;4959183;28;20034;-68
2022/01/08 08:52:23;;;;;;;15.32;10.25;;;5.30;98.10;;;;;;4957552;28;20064;-68
2022/01/08 08:54:49;;;;;;;16.48;9.77;;;5.30;98.10;;;;;;4973025;28;20038;-68
2022/01/08 08:57:14;;;;;;;14.07;9.18;;;5.30;98.10;;;;;;4973235;28;20110;-68
2022/01/08 08:59:40;;;;;;;13.98;9.45;;;5.30;98.20;;;;;;4993056;28;20469;-68
2022/01/08 09:02:05;;;;;;;16.23;9.75;;;5.30;98.20;;;;;;4982918;28;20042;-68
2022/01/08 09:04:31;;;;;;;15.48;10.98;;;5.30;98.20;;;;;;4973600;28;20023;-68
2022/01/08 09:06:57;;;;;;;18.70;10.07;;;5.30;98.20;;;;;;4973056;28;20505;-70
2022/01/08 09:09:24;;;;;;;13.88;9.98;;;5.30;98.20;;;;;;4962113;28;20122;-68
2022/01/08 09:11:49;;;;;;;15.00;9.88;;;5.30;98.20;;;;;;4953337;29;20065;-68
2022/01/08 09:14:15;;;;;;;15.40;9.80;;;5.30;98.20;;;;;;4953706;28;20447;-67
2022/01/08 09:16:54;;;;;;;17.48;10.23;;;5.40;98.20;;;;;;4962801;28;20031;-67
2022/01/08 09:19:21;;;;;;;15.05;9.68;;;5.40;98.20;;;;;;4972671;28;20042;-67
2022/01/08 09:21:47;;;;;;;14.25;9.68;;;5.30;98.10;;;;;;4972745;28;20042;-66
2022/01/08 09:24:14;;;;;;;14.88;10.13;;;5.30;98.10;;;;;;4955238;28;20134;-67
2022/01/08 09:26:40;;;;;;;14.95;10.38;;;5.30;98.10;;;;;;4963339;28;20042;-67
2022/01/08 09:29:06;;;;;;;13.88;10.18;;;5.30;98.10;;;;;;4972194;28;20019;-67
2022/01/08 09:31:32;;;;;;;14.65;9.52;;;5.30;98.10;;;;;;4968899;28;20027;-67
2022/01/08 09:33:58;;;;;;;13.07;9.57;;;5.30;98.10;;;;;;4974105;28;20031;-67
2022/01/08 09:36:23;;;;;;;14.77;9.73;;;5.40;98.10;;;;;;4974467;28;20038;-67
2022/01/08 09:38:49;;;;;;;12.70;8.75;;;5.40;98.10;;;;;;4972200;28;20552;-67
2022/01/08 09:41:15;;;;;;;14.23;9.50;;;5.40;98.10;;;;;;4972457;28;20097;-67
2022/01/08 09:43:41;;;;;;;14.50;9.25;;;5.40;98.00;;;;;;4972013;28;20089;-67
2022/01/08 09:46:07;;;;;;;13.38;8.95;;;5.40;97.90;;;;;;4972831;28;20027;-67
2022/01/08 09:48:32;;;;;;;14.90;8.77;;;5.50;97.90;;;;;;4960174;28;20498;-67
2022/01/08 09:50:58;;;;;;;17.75;9.60;;;5.50;97.90;;;;;;4953039;28;20047;-67
2022/01/08 09:53:24;;;;;;;12.25;8.52;;;5.50;97.90;;;;;;4970921;28;20054;-67
2022/01/08 09:55:49;;;;;;;14.73;9.02;;;5.50;97.90;;;;;;4972588;28;20027;-67
2022/01/08 09:58:15;;;;;;;13.18;8.73;;;5.50;97.90;;;;;;4972279;28;20461;-67
2022/01/08 10:00:40;;;;;;;12.73;9.27;;;5.50;97.90;;;;;;4967248;28;20042;-66
2022/01/08 10:03:19;;;;;;;14.80;8.95;;;5.50;97.80;;;;;;4970871;28;20385;-67
2022/01/08 10:05:50;;;;;;;14.80;9.45;;;5.50;97.80;;;;;;4961618;28;20121;-64
2022/01/08 10:08:22;;;;;;;15.20;9.82;;;5.50;97.80;;;;;;4972041;28;20039;-63
2022/01/08 10:10:59;;;;;;;13.32;9.27;;;5.50;97.70;;;;;;4958215;28;20442;-63
2022/01/08 10:13:33;;;;;;;16.60;9.23;;;5.40;97.70;;;;;;4964757;28;20045;-63
2022/01/08 10:18:45;;;;;;;14.25;9.27;;;5.30;97.70;;;;;;4971601;28;20038;-64
2022/01/08 10:21:21;;;;;;;13.50;9.45;;;5.40;97.70;;;;;;4971507;28;20035;-65
2022/01/08 10:23:52;;;;;;;14.63;9.68;;;5.40;97.70;;;;;;4971141;28;20093;-63
2022/01/08 10:26:20;;;;;;;13.40;9.45;;;5.40;97.70;;;;;;4972055;28;20046;-64
2022/01/08 10:28:53;;;;;;;15.73;9.98;;;5.40;97.70;;;;;;4971198;28;20046;-64
2022/01/08 10:31:39;;;;;;;13.95;9.98;;;5.40;97.70;;;;;;4972413;28;20046;-64
2022/01/08 10:34:08;;;;;;;16.25;10.00;;;5.40;97.70;;;;;;4955768;28;20036;-65
2022/01/08 10:36:37;;;;;;;14.90;9.93;;;5.30;97.70;;;;;;4961605;28;20026;-64
2022/01/08 10:39:05;;;;;;;15.10;10.10;;;5.30;97.70;;;;;;4969792;28;20031;-64
2022/01/08 10:41:31;;;;;;;13.45;9.93;;;5.30;97.70;;;;;;4966173;28;20039;-64
2022/01/08 10:44:09;;;;;;;14.95;10.00;;;5.30;97.70;;;;;;4959992;28;20212;-64
2022/01/08 10:46:35;;;;;;;15.35;10.02;;;5.30;97.70;;;;;;4952760;29;20110;-64
2022/01/08 10:49:02;;;;;;;16.67;10.88;;;5.30;97.70;;;;;;4967975;28;20114;-64
2022/01/08 10:51:34;;;;;;;17.88;11.10;;;5.30;97.80;;;;;;4969839;28;20447;-64
2022/01/08 10:54:05;;;;;;;17.95;12.10;;;5.30;97.80;;;;;;4971022;28;20509;-64
2022/01/08 10:56:37;;;;;;;16.02;10.32;;;5.30;97.90;;;;;;4986863;28;20545;-64
2022/01/08 10:59:07;;;;;;;16.25;10.45;;;5.30;97.80;;;;;;4970273;28;20186;-64
2022/01/08 11:01:50;;;;;;;15.00;10.32;;;5.30;97.80;;;;;;4970425;28;20038;-63
2022/01/08 11:04:58;;;;;;;13.82;9.40;;;5.40;97.90;;;;;;4974231;28;20073;-63
2022/01/08 11:07:29;;;;;;;12.88;9.15;;;5.40;97.80;;;;;;4895252;29;20043;-64
2022/01/08 11:10:03;;;;;;;13.15;9.15;;;5.40;97.80;;;;;;4889304;29;20041;-63
2022/01/08 11:12:36;;;;;;;17.92;10.05;;;5.40;97.80;;;;;;4929704;28;20180;-63
2022/01/08 11:17:50;;;;;;;21.30;9.82;;;5.40;97.80;;;;;;4974248;28;20033;-63
2022/01/08 11:20:25;;;;;;;18.52;10.38;;;5.50;97.80;;;;;;4975072;28;20042;-64
2022/01/08 11:22:57;;;;;;;14.10;9.68;;;5.50;97.90;;;;;;4966763;28;20118;-64
2022/01/08 11:25:28;;;;;;;17.13;10.30;;;5.50;97.80;;;;;;4969371;28;20054;-64
2022/01/08 11:28:07;;;;;;;14.75;9.70;;;5.60;97.70;;;;;;4974040;28;20030;-64
2022/01/08 11:30:37;;;;;;;19.20;9.00;;;5.60;97.70;;;;;;4974669;28;20074;-64
2022/01/08 11:33:08;;;;;;;15.65;9.55;;;5.70;97.70;;;;;;4973968;28;20023;-63
2022/01/08 11:35:36;;;;;;;13.27;9.25;;;5.80;97.70;;;;;;4975048;28;20109;-63
2022/01/08 11:38:07;;;;;;;14.50;9.30;;;5.80;97.70;;;;;;4972235;28;20482;-63
2022/01/08 11:40:33;;;;;;;11.73;8.30;;;5.90;97.60;;;;;;4970755;28;20044;-65
2022/01/08 11:43:02;;;;;;;11.82;8.05;;;5.90;97.40;;;;;;4967067;28;20031;-64
2022/01/08 11:45:33;;;;;;;11.80;8.27;;;6.00;97.30;;;;;;4968107;28;20520;-64
2022/01/08 11:48:03;;;;;;;11.95;6.93;;;6.10;97.10;;;;;;4970058;28;20085;-64
2022/01/08 11:50:31;;;;;;;10.75;7.68;;;6.00;96.60;;;;;;4973607;28;20038;-63
2022/01/08 11:53:16;;;;;;;11.00;7.68;;;6.10;96.70;;;;;;4966929;28;20035;-63
2022/01/08 11:55:45;;;;;;;12.20;7.72;;;6.10;96.60;;;;;;4968916;28;20041;-63
2022/01/08 11:58:28;;;;;;;10.75;6.82;;;6.10;96.50;;;;;;4972532;28;20031;-63
2022/01/08 12:00:58;;;;;;;12.55;7.45;;;6.20;96.40;;;;;;4974111;28;20144;-63
2022/01/08 12:03:28;;;;;;;8.63;6.20;;;6.20;96.30;;;;;;4972737;28;20085;-64
2022/01/08 12:05:54;;;;;;;13.27;6.60;;;6.20;96.10;;;;;;4972950;28;20038;-64
2022/01/08 12:08:33;;;;;;;9.20;6.28;;;6.30;96.00;;;;;;4971911;28;20418;-64
2022/01/08 12:11:01;;;;;;;11.07;7.05;;;6.30;95.90;;;;;;4972572;28;20039;-63
2022/01/08 12:13:47;;;;;;;11.60;7.57;;;6.30;95.80;;;;;;4972256;28;20035;-64
2022/01/08 12:16:32;;;;;;;13.73;7.53;;;6.40;95.70;;;;;;4969129;28;20062;-64
2022/01/08 12:18:58;;;;;;;10.65;7.47;;;6.40;95.60;;;;;;4967230;28;20031;-64
2022/01/08 12:21:38;;;;;;;16.60;8.48;;;6.40;95.60;;;;;;4967069;28;20047;-64
2022/01/08 12:24:25;;;;;;;10.27;7.03;;;6.40;95.50;;;;;;4971107;28;20147;-63
2022/01/08 12:26:53;;;;;;;10.15;7.13;;;6.50;95.50;;;;;;4973226;28;20035;-63
2022/01/08 12:29:38;;;;;;;15.60;7.05;;;6.50;95.50;;;;;;4962919;28;20054;-62
2022/01/08 12:32:36;;;;;;;13.85;7.07;;;6.50;95.40;;;;;;4973226;28;20092;-64
2022/01/08 12:35:55;;;;;;;14.30;7.90;;;6.50;95.40;;;;;;4970553;28;20034;-63
2022/01/08 12:38:28;;;;;;;12.68;7.53;;;6.50;95.40;;;;;;4963756;28;20123;-63
2022/01/08 12:40:55;;;;;;;13.63;7.20;;;6.60;95.40;;;;;;4972934;28;20105;-64
2022/01/08 12:43:23;;;;;;;14.32;7.40;;;6.70;95.50;;;;;;4971446;28;20129;-64
2022/01/08 12:45:50;;;;;;;12.30;7.50;;;6.70;95.30;;;;;;4971372;28;20041;-65
2022/01/08 12:48:17;;;;;;;10.57;6.60;;;6.80;95.20;;;;;;4971208;28;20058;-65
2022/01/08 12:50:42;;;;;;;10.70;6.72;;;6.80;95.00;;;;;;4972655;28;20061;-64
2022/01/08 12:53:12;;;;;;;10.70;6.65;;;6.80;94.90;;;;;;4965291;28;20051;-64
2022/01/08 12:55:48;;;;;;;15.77;7.30;;;6.80;94.80;;;;;;4972488;28;20570;-64
2022/01/08 12:58:16;;;;;;;12.77;6.70;;;6.70;94.80;;;;;;4963919;28;20395;-64
2022/01/08 13:01:10;;;;;;;14.50;7.25;;;6.80;94.70;;;;;;4969765;28;20557;-64
2022/01/08 13:03:41;;;;;;;10.68;6.38;;;6.80;94.60;;;;;;4966577;28;20106;-65
2022/01/08 13:06:12;;;;;;;12.32;6.05;;;6.80;94.50;;;;;;4970111;28;20565;-64
2022/01/08 13:08:40;;;;;;;9.52;6.32;;;6.80;94.40;;;;;;4971756;28;20402;-64
2022/01/08 13:11:09;;;;;;;15.23;7.63;;;6.80;94.40;;;;;;4972942;28;20027;-64